Time;durP1;ratioP1;P1;durP2;ratioP2;P2;SDS_P1;SDS_P2;PMS_P1;PMS_P2;Temp;Humidity;BMP_temperature;BMP_pressure;BME280_temperature;BME280_humidity;BME280_pressure;Samples;Min_cycle;Max_cycle;Signal;HPM_P1;HPM_P2
2024/04/06 00:00:45;;;;;;;5.1;2.6;;;;;;;15.07;68.29;98530;;;;
2024/04/06 00:11:45;;;;;;;5.9;2.6;;;;;;;15.13;68;98521.666666667;;;;
2024/04/06 00:21:45;;;;;;;5.9;2.6;;;;;;;15.3;67.76;98521.666666667;;;;
2024/04/06 00:31:45;;;;;;;5.9;2.6;;;;;;;15.46;67.22;98504;;;;
2024/04/06 00:41:45;;;;;;;5.1;2.2;;;;;;;15.57;67.08;98504;;;;
2024/04/06 00:51:45;;;;;;;5.1;2.2;;;;;;;15.77;66.34;98508;;;;
2024/04/06 01:02:45;;;;;;;5.1;2.2;;;;;;;16.01;65.37;98502;;;;
2024/04/06 01:13:45;;;;;;;4.8;2.2;;;;;;;16.14;64.92;98506;;;;
2024/04/06 01:24:45;;;;;;;4.8;2.2;;;;;;;16.42;64.07;98508;;;;
2024/04/06 01:35:45;;;;;;;2.9;1.5;;;;;;;16.47;64.25;98508;;;;
2024/04/06 01:46:45;;;;;;;2.9;1.5;;;;;;;16.44;64.25;98518;;;;
2024/04/06 01:56:45;;;;;;;2.9;1.5;;;;;;;16.3;64.85;98536;;;;
2024/04/06 02:06:45;;;;;;;4.4;1.6;;;;;;;16.2;65.16;98542;;;;
2024/04/06 02:17:45;;;;;;;4.4;1.6;;;;;;;16.04;65.42;98548;;;;
2024/04/06 02:28:45;;;;;;;4.4;1.6;;;;;;;16.11;64.74;98568;;;;
2024/04/06 02:39:45;;;;;;;3.3;1.8;;;;;;;16.34;64.47;98578;;;;
2024/04/06 02:49:45;;;;;;;3.3;1.8;;;;;;;16.38;64.58;98586;;;;
2024/04/06 02:59:45;;;;;;;3.3;1.8;;;;;;;16.4;64.33;98605;;;;
2024/04/06 03:10:45;;;;;;;3.7;1.4;;;;;;;16.39;64.47;98611.666666667;;;;
2024/04/06 03:20:45;;;;;;;3.7;1.4;;;;;;;16.44;64.38;98630;;;;
2024/04/06 03:31:45;;;;;;;3.7;1.4;;;;;;;16.35;65.53;98653.333333333;;;;
2024/04/06 03:42:45;;;;;;;4.2;2;;;;;;;16.22;66.42;98676.666666667;;;;
2024/04/06 03:53:45;;;;;;;4.2;2;;;;;;;16.17;67.13;98688.333333333;;;;
2024/04/06 04:03:45;;;;;;;4.2;2;;;;;;;16.17;67.42;98701.666666667;;;;
2024/04/06 04:14:45;;;;;;;4.5;2;;;;;;;16.05;68.04;98708.333333333;;;;
2024/04/06 04:25:45;;;;;;;4.5;2;;;;;;;15.92;68.51;98718.333333333;;;;
2024/04/06 04:35:45;;;;;;;4.3;2.7;;;;;;;15.73;69.06;98733.333333333;;;;
2024/04/06 04:45:45;;;;;;;4.3;2.7;;;;;;;15.63;69.36;98740;;;;
2024/04/06 04:56:45;;;;;;;4.3;2.7;;;;;;;15.55;69.34;98751.666666667;;;;
2024/04/06 05:07:45;;;;;;;5.1;2.2;;;;;;;15.56;68.78;98773.333333333;;;;
2024/04/06 05:18:45;;;;;;;5.1;2.2;;;;;;;15.6;68.27;98788.333333333;;;;
2024/04/06 05:28:45;;;;;;;5.1;2.2;;;;;;;15.61;67.94;98798.333333333;;;;
2024/04/06 05:38:45;;;;;;;5.7;2.4;;;;;;;15.66;67.02;98811.666666667;;;;
2024/04/06 05:49:45;;;;;;;5.7;2.4;;;;;;;15.79;66.44;98821.666666667;;;;
2024/04/06 05:59:45;;;;;;;5.7;2.4;;;;;;;15.86;67.68;98826.666666667;;;;
2024/04/06 06:09:45;;;;;;;5.6;3;;;;;;;16.02;67.28;98836.666666667;;;;
2024/04/06 06:20:45;;;;;;;5.6;3;;;;;;;16.15;67.53;98851.666666667;;;;
2024/04/06 06:30:45;;;;;;;5.6;3;;;;;;;16.26;67.49;98853.333333333;;;;
2024/04/06 06:41:45;;;;;;;5.1;3.1;;;;;;;16.6;66.5;98863.333333333;;;;
2024/04/06 06:51:45;;;;;;;5.1;3.1;;;;;;;17.01;65.24;98860;;;;
2024/04/06 07:02:45;;;;;;;5.1;3.1;;;;;;;17;64.5;98880;;;;
2024/04/06 07:12:45;;;;;;;8.8;2.7;;;;;;;17.24;64.43;98881.666666667;;;;
2024/04/06 07:23:45;;;;;;;8.8;2.7;;;;;;;17.43;63.26;98890;;;;
2024/04/06 07:33:45;;;;;;;8.8;2.7;;;;;;;17.55;63.57;98890;;;;
2024/04/06 07:44:45;;;;;;;7.1;3;;;;;;;17.48;63.42;98890;;;;
2024/04/06 07:54:45;;;;;;;7.1;3;;;;;;;17.92;63.23;98881.666666667;;;;
2024/04/06 08:04:45;;;;;;;5.4;2.4;;;;;;;18.41;62.42;98888.333333333;;;;
2024/04/06 08:14:45;;;;;;;5.4;2.4;;;;;;;18.8;58.56;98880;;;;
2024/04/06 08:25:45;;;;;;;5.4;2.4;;;;;;;19.31;52.92;98888.333333333;;;;
2024/04/06 08:36:45;;;;;;;4.3;1.9;;;;;;;19.52;53.84;98888.333333333;;;;
2024/04/06 08:46:45;;;;;;;4.3;1.9;;;;;;;20.04;51.85;98888.333333333;;;;
2024/04/06 08:57:45;;;;;;;4.3;1.9;;;;;;;19.95;52.02;98903.333333333;;;;
2024/04/06 09:08:45;;;;;;;4.8;2.1;;;;;;;19.97;51.43;98895;;;;
2024/04/06 09:18:45;;;;;;;4.8;2.1;;;;;;;20.17;52.02;98890;;;;
2024/04/06 09:28:45;;;;;;;4.8;2.1;;;;;;;20.46;51.25;98886.666666667;;;;
2024/04/06 09:38:45;;;;;;;4.4;2.1;;;;;;;20.76;50.49;98898.333333333;;;;
2024/04/06 09:49:45;;;;;;;4.4;2.1;;;;;;;20.83;50.13;98901.666666667;;;;
2024/04/06 09:59:45;;;;;;;4.4;2.1;;;;;;;21.1;50.28;98895;;;;
2024/04/06 10:09:45;;;;;;;5.3;1.9;;;;;;;21.13;48.94;98896.666666667;;;;
2024/04/06 10:20:45;;;;;;;5.3;1.9;;;;;;;21.26;49.7;98882;;;;
2024/04/06 10:30:45;;;;;;;5.3;1.9;;;;;;;21.04;49.93;98878;;;;
2024/04/06 10:40:45;;;;;;;4.9;2;;;;;;;21.01;49.82;98854;;;;
2024/04/06 10:51:45;;;;;;;4.9;2;;;;;;;21.41;49.08;98858;;;;
2024/04/06 11:02:45;;;;;;;4.9;2;;;;;;;21.03;50.64;98876.666666667;;;;
2024/04/06 11:12:45;;;;;;;10.2;3.4;;;;;;;21.28;49.91;98876.666666667;;;;
2024/04/06 11:23:45;;;;;;;10.2;3.4;;;;;;;21.36;50.05;98866.666666667;;;;
2024/04/06 11:33:45;;;;;;;10.2;3.4;;;;;;;21.52;50.27;98861.666666667;;;;
2024/04/06 11:43:45;;;;;;;5.1;2.1;;;;;;;21.95;49.84;98845;;;;
2024/04/06 11:54:45;;;;;;;5.1;2.1;;;;;;;21.72;50.28;98833.333333333;;;;
2024/04/06 12:04:45;;;;;;;5.2;2.2;;;;;;;21.91;50.94;98840;;;;
2024/04/06 12:15:45;;;;;;;5.2;2.2;;;;;;;22.33;47.36;98835;;;;
2024/04/06 12:25:45;;;;;;;5.2;2.2;;;;;;;22.21;47.25;98831.666666667;;;;
2024/04/06 12:36:45;;;;;;;3.9;1.8;;;;;;;22.24;46.99;98835;;;;
2024/04/06 12:46:45;;;;;;;3.9;1.8;;;;;;;22.51;46.08;98830;;;;
2024/04/06 12:57:45;;;;;;;3.9;1.8;;;;;;;21.6;48.62;98831.666666667;;;;
2024/04/06 13:07:45;;;;;;;4.1;1.6;;;;;;;21.85;47.81;98841.666666667;;;;
2024/04/06 13:17:45;;;;;;;4.1;1.6;;;;;;;21.58;48.33;98845;;;;
2024/04/06 13:27:45;;;;;;;4.1;1.6;;;;;;;21.6;49.74;98845;;;;
2024/04/06 13:38:46;;;;;;;4.1;2.1;;;;;;;21.15;51.04;98848.333333333;;;;
2024/04/06 13:49:45;;;;;;;4.1;2.1;;;;;;;20.84;51.15;98848.333333333;;;;
2024/04/06 14:00:45;;;;;;;4.1;2.1;;;;;;;20.89;51.11;98843.333333333;;;;
2024/04/06 14:10:45;;;;;;;4.7;2.6;;;;;;;20.68;50.96;98846.666666667;;;;
2024/04/06 14:21:45;;;;;;;4.7;2.6;;;;;;;20.59;52.34;98845;;;;
2024/04/06 14:31:45;;;;;;;4.7;2.6;;;;;;;20.33;52.93;98838.333333333;;;;
2024/04/06 14:42:45;;;;;;;6.2;2.3;;;;;;;20.37;52.89;98841.666666667;;;;
2024/04/06 14:52:45;;;;;;;6.2;2.3;;;;;;;20.31;53.39;98846.666666667;;;;
2024/04/06 15:03:45;;;;;;;6.2;2.3;;;;;;;20.36;53.7;98853.333333333;;;;
2024/04/06 15:14:45;;;;;;;5.4;2.8;;;;;;;20.45;53.55;98851.666666667;;;;
2024/04/06 15:25:45;;;;;;;5.4;2.8;;;;;;;20.52;54.31;98860;;;;
2024/04/06 15:35:45;;;;;;;6.7;3.1;;;;;;;20.3;54.11;98863.333333333;;;;
2024/04/06 15:45:45;;;;;;;6.7;3.1;;;;;;;20.33;54.61;98848.333333333;;;;
2024/04/06 15:56:45;;;;;;;6.7;3.1;;;;;;;21.77;50.9;98855;;;;
2024/04/06 16:07:45;;;;;;;5.6;3.5;;;;;;;24.39;45.53;98858.333333333;;;;
2024/04/06 16:18:45;;;;;;;5.6;3.5;;;;;;;24.26;44.09;98858.333333333;;;;
2024/04/06 16:28:45;;;;;;;5.6;3.5;;;;;;;22.79;47.32;98861.666666667;;;;
2024/04/06 16:39:45;;;;;;;5.2;2.4;;;;;;;21.42;50.9;98878.333333333;;;;
2024/04/06 16:49:45;;;;;;;5.2;2.4;;;;;;;20.87;52.36;98883.333333333;;;;
2024/04/06 17:00:45;;;;;;;5.2;2.4;;;;;;;19.86;54.32;98886.666666667;;;;
2024/04/06 17:11:45;;;;;;;7.3;3.8;;;;;;;18.83;57.36;98891.666666667;;;;
2024/04/06 17:22:45;;;;;;;7.3;3.8;;;;;;;18.07;59.43;98896.666666667;;;;
2024/04/06 17:33:45;;;;;;;7.3;3.8;;;;;;;17.42;62.82;98913.333333333;;;;
2024/04/06 17:43:45;;;;;;;10.7;5.9;;;;;;;16.97;63.73;98915;;;;
2024/04/06 17:53:45;;;;;;;10.7;5.9;;;;;;;16.52;64.51;98923.333333333;;;;
2024/04/06 18:04:45;;;;;;;10.7;5.9;;;;;;;15.97;66.11;98925;;;;
2024/04/06 18:14:45;;;;;;;12.1;10.4;;;;;;;15.51;68.34;98928.333333333;;;;
2024/04/06 18:25:45;;;;;;;12.1;10.4;;;;;;;15.05;70.07;98945;;;;
2024/04/06 18:36:45;;;;;;;18.5;13.9;;;;;;;14.78;72.79;98935;;;;
2024/04/06 18:47:46;;;;;;;18.5;13.9;;;;;;;14.52;72.75;98928.333333333;;;;
2024/04/06 18:57:45;;;;;;;18.5;13.9;;;;;;;14.39;74.1;98945;;;;
2024/04/06 19:07:45;;;;;;;18.7;14.2;;;;;;;14.24;74.37;98953.333333333;;;;
2024/04/06 19:17:45;;;;;;;18.7;14.2;;;;;;;14.03;73.81;98953.333333333;;;;
2024/04/06 19:28:45;;;;;;;18.7;14.2;;;;;;;13.83;75.17;98958.333333333;;;;
2024/04/06 19:39:45;;;;;;;23.6;19.3;;;;;;;13.76;77.06;98966.666666667;;;;
2024/04/06 19:50:45;;;;;;;23.6;19.3;;;;;;;13.52;76.19;98963.333333333;;;;
2024/04/06 20:00:46;;;;;;;23.6;19.3;;;;;;;13.43;77;98963.333333333;;;;
2024/04/06 20:10:45;;;;;;;19;15.6;;;;;;;13.22;76.37;98980;;;;
2024/04/06 20:26:01;;;;;;;19;15.6;;;;;;;12.88;76.62;99000;;;;
2024/04/06 20:31:45;;;;;;;19;15.6;;;;;;;12.63;76.99;99010;;;;
2024/04/06 20:41:45;;;;;;;23.5;17.3;;;;;;;12.38;78.44;99016.666666667;;;;
2024/04/06 20:52:45;;;;;;;23.5;17.3;;;;;;;12.2;81.22;99026.666666667;;;;
2024/04/06 21:03:45;;;;;;;23.5;17.3;;;;;;;12.12;81.93;99016.666666667;;;;
2024/04/06 21:13:45;;;;;;;24.8;14.2;;;;;;;12.1;83.44;99008.333333333;;;;
2024/04/06 21:23:45;;;;;;;24.8;14.2;;;;;;;12.32;83.92;98998.333333333;;;;
2024/04/06 21:34:45;;;;;;;16.7;8;;;;;;;12.54;83.6;98995;;;;
2024/04/06 21:45:45;;;;;;;16.7;8;;;;;;;12.6;82.53;98986.666666667;;;;
2024/04/06 21:55:45;;;;;;;16.7;8;;;;;;;12.72;82.29;98995;;;;
2024/04/06 22:05:45;;;;;;;17.2;8.3;;;;;;;12.49;81.74;99008.333333333;;;;
2024/04/06 22:16:47;;;;;;;17.2;8.3;;;;;;;12.33;81.4;99008.333333333;;;;
2024/04/06 22:27:45;;;;;;;17.2;8.3;;;;;;;12.15;81.42;99018.333333333;;;;
2024/04/06 22:38:45;;;;;;;23.7;16.6;;;;;;;11.72;83.39;99023.333333333;;;;
2024/04/06 22:49:45;;;;;;;23.7;16.6;;;;;;;11.56;83.39;99033.333333333;;;;
2024/04/06 22:59:45;;;;;;;23.7;16.6;;;;;;;11.34;83.51;99038.333333333;;;;
2024/04/06 23:10:46;;;;;;;23.9;16.1;;;;;;;11.24;84.1;99046.666666667;;;;
2024/04/06 23:20:45;;;;;;;23.9;16.1;;;;;;;11.06;84.5;99056.666666667;;;;
2024/04/06 23:30:45;;;;;;;23.9;16.1;;;;;;;10.96;84.07;99056.666666667;;;;
2024/04/06 23:40:45;;;;;;;19.4;11.1;;;;;;;10.74;84.66;99051.666666667;;;;
2024/04/06 23:51:45;;;;;;;19.4;11.1;;;;;;;10.73;86.22;99060;;;;
